createdAt,value
2019-01-19T00:00:30.700Z,-2.00
2019-01-19T00:03:13.443Z,-2.00
2019-01-19T00:05:48.611Z,-2.00
2019-01-19T00:08:21.089Z,-1.90
2019-01-19T00:11:05.609Z,-1.90
2019-01-19T00:13:52.595Z,-1.90
2019-01-19T00:16:33.753Z,-1.90
2019-01-19T00:19:31.822Z,-1.90
2019-01-19T00:22:06.900Z,-2.00
2019-01-19T00:24:57.308Z,-2.10
2019-01-19T00:27:32.336Z,-2.10
2019-01-19T00:30:24.468Z,-2.20
2019-01-19T00:32:59.536Z,-2.20
2019-01-19T00:35:40.883Z,-2.20
2019-01-19T00:38:25.328Z,-2.20
2019-01-19T00:41:03.379Z,-2.20
2019-01-19T00:43:32.717Z,-2.30
2019-01-19T00:46:16.794Z,-2.30
2019-01-19T00:48:49.157Z,-2.30
2019-01-19T00:51:21.523Z,-2.20
2019-01-19T00:53:56.664Z,-2.20
2019-01-19T00:56:50.353Z,-2.10
2019-01-19T00:59:22.719Z,-2.10
2019-01-19T01:02:17.534Z,-2.20
2019-01-19T01:04:55.914Z,-2.20
2019-01-19T01:07:40.217Z,-2.30
2019-01-19T01:10:21.055Z,-2.30
2019-01-19T01:13:04.994Z,-2.30
2019-01-19T01:16:06.281Z,-2.30
2019-01-19T01:19:02.901Z,-2.40
2019-01-19T01:21:49.918Z,-2.50
2019-01-19T01:24:37.166Z,-2.50
2019-01-19T01:27:18.800Z,-2.60
2019-01-19T01:30:10.617Z,-2.60
2019-01-19T01:32:48.818Z,-2.70
2019-01-19T01:35:21.194Z,-2.60
2019-01-19T01:37:56.565Z,-2.60
2019-01-19T01:40:40.797Z,-2.60
2019-01-19T01:43:18.863Z,-2.60
2019-01-19T01:45:57.477Z,-2.60
2019-01-19T01:48:38.631Z,-2.60
2019-01-19T01:51:11.007Z,-2.60
2019-01-19T01:53:43.380Z,-2.70
2019-01-19T01:56:12.934Z,-2.60
2019-01-19T01:59:04.903Z,-2.60
2019-01-19T02:02:05.748Z,-2.50
2019-01-19T02:04:47.042Z,-2.50
2019-01-19T02:07:36.213Z,-2.60
2019-01-19T02:10:29.559Z,-2.60
2019-01-19T02:13:25.990Z,-2.60
2019-01-19T02:16:07.263Z,-2.60
2019-01-19T02:18:59.223Z,-2.60
2019-01-19T02:21:34.315Z,-2.70
2019-01-19T02:24:18.795Z,-2.80
2019-01-19T02:27:24.458Z,-2.70
2019-01-19T02:30:14.500Z,-2.80
2019-01-19T02:32:58.101Z,-2.70
2019-01-19T02:35:33.258Z,-2.70
2019-01-19T02:38:20.366Z,-2.70
2019-01-19T02:41:12.367Z,-2.70
2019-01-19T02:43:50.847Z,-2.70
2019-01-19T02:46:35.176Z,-2.70
2019-01-19T02:49:24.107Z,-2.80
2019-01-19T02:51:59.040Z,-2.80
2019-01-19T02:54:40.272Z,-2.70
2019-01-19T02:57:27.477Z,-2.80
2019-01-19T03:00:14.717Z,-2.80
2019-01-19T03:02:52.788Z,-2.80
2019-01-19T03:05:27.889Z,-2.80
2019-01-19T03:08:00.276Z,-2.70
2019-01-19T03:10:53.892Z,-2.70
2019-01-19T03:13:38.019Z,-2.70
2019-01-19T03:16:36.993Z,-2.50
2019-01-19T03:19:36.637Z,-2.30
2019-01-19T03:22:27.059Z,-2.20
2019-01-19T03:25:28.065Z,-2.20
2019-01-19T03:28:15.536Z,-2.30
2019-01-19T03:31:11.876Z,-2.30
2019-01-19T03:33:44.252Z,-2.30
2019-01-19T03:36:28.387Z,-2.10
2019-01-19T03:39:07.091Z,-2.00
2019-01-19T03:41:45.215Z,-2.00
2019-01-19T03:44:23.263Z,-1.90
2019-01-19T03:47:12.081Z,-1.80
2019-01-19T03:50:07.247Z,-1.90
2019-01-19T03:52:48.697Z,-1.80
2019-01-19T03:55:23.927Z,-1.90
2019-01-19T03:57:59.001Z,-1.90
2019-01-19T04:01:01.383Z,-1.90
2019-01-19T04:04:01.115Z,-1.90
2019-01-19T04:06:36.254Z,-2.00
2019-01-19T04:09:42.020Z,-2.00
2019-01-19T04:12:40.160Z,-2.10
2019-01-19T04:15:26.938Z,-2.10
2019-01-19T04:18:08.154Z,-2.10
2019-01-19T04:20:49.369Z,-2.10
2019-01-19T04:23:18.470Z,-2.10
2019-01-19T04:25:51.228Z,-2.10
2019-01-19T04:28:21.224Z,-2.10
2019-01-19T04:30:50.345Z,-2.10
2019-01-19T04:33:19.454Z,-2.10
2019-01-19T04:35:48.570Z,-2.00
2019-01-19T04:38:17.683Z,-2.10
2019-01-19T04:40:46.787Z,-2.10
2019-01-19T04:43:15.909Z,-2.00
2019-01-19T04:45:45.051Z,-2.10
2019-01-19T04:48:14.876Z,-2.00
2019-01-19T04:50:43.998Z,-2.10
2019-01-19T04:53:13.108Z,-2.20
2019-01-19T04:55:42.221Z,-2.20
2019-01-19T04:58:11.359Z,-2.20
2019-01-19T05:00:40.482Z,-2.20
2019-01-19T05:03:09.583Z,-2.20
2019-01-19T05:05:38.713Z,-2.20
2019-01-19T05:08:09.447Z,-2.20
2019-01-19T05:10:38.580Z,-2.20
2019-01-19T05:13:07.691Z,-2.20
2019-01-19T05:15:36.786Z,-2.30
2019-01-19T05:18:06.544Z,-2.30
2019-01-19T05:20:35.649Z,-2.30
2019-01-19T05:23:04.757Z,-2.20
2019-01-19T05:25:33.872Z,-2.30
2019-01-19T05:28:02.983Z,-2.40
2019-01-19T05:30:33.066Z,-2.40
2019-01-19T05:33:02.187Z,-2.50
2019-01-19T05:35:32.367Z,-2.50
2019-01-19T05:38:01.928Z,-2.50
2019-01-19T05:40:31.376Z,-2.50
2019-01-19T05:43:00.482Z,-2.50
2019-01-19T05:45:29.600Z,-2.50
2019-01-19T05:47:58.723Z,-2.50
2019-01-19T05:50:27.833Z,-2.50
2019-01-19T05:52:56.944Z,-2.50
2019-01-19T05:55:26.056Z,-2.40
2019-01-19T05:57:55.163Z,-2.40
2019-01-19T06:00:26.320Z,-2.30
2019-01-19T06:02:55.497Z,-2.20
2019-01-19T06:05:24.609Z,-2.20
2019-01-19T06:07:53.718Z,-2.10
2019-01-19T06:10:22.864Z,-2.10
2019-01-19T06:12:51.978Z,-2.10
2019-01-19T06:15:21.093Z,-2.10
2019-01-19T06:17:50.205Z,-2.10
2019-01-19T06:20:19.305Z,-2.10
2019-01-19T06:22:48.456Z,-2.10
2019-01-19T06:25:17.558Z,-2.10
2019-01-19T06:27:46.678Z,-2.10
2019-01-19T06:30:18.678Z,-2.20
2019-01-19T06:32:47.868Z,-2.20
2019-01-19T06:35:17.172Z,-2.20
2019-01-19T06:37:46.293Z,-2.20
2019-01-19T06:40:17.031Z,-2.10
2019-01-19T06:42:46.217Z,-2.10
2019-01-19T06:45:20.263Z,-2.10
2019-01-19T06:47:49.374Z,-2.10
2019-01-19T06:50:18.486Z,-2.20
2019-01-19T06:52:47.610Z,-2.20
2019-01-19T06:55:19.348Z,-2.20
2019-01-19T06:57:48.462Z,-2.20
2019-01-19T07:00:18.202Z,-2.30
2019-01-19T07:02:47.319Z,-2.30
2019-01-19T07:05:16.434Z,-2.30
2019-01-19T07:07:45.549Z,-2.30
2019-01-19T07:10:17.194Z,-2.30
2019-01-19T07:12:46.333Z,-2.30
2019-01-19T07:15:15.456Z,-2.30
2019-01-19T07:17:44.582Z,-2.20
2019-01-19T07:20:16.292Z,-2.20
2019-01-19T07:22:45.410Z,-2.10
2019-01-19T07:25:14.510Z,-2.10
2019-01-19T07:27:44.635Z,-2.10
2019-01-19T07:30:15.513Z,-2.10
2019-01-19T07:32:45.354Z,-2.10
2019-01-19T07:35:14.911Z,-2.10
2019-01-19T07:37:44.033Z,-2.10
2019-01-19T07:40:14.978Z,-2.10
2019-01-19T07:42:44.907Z,-2.10
2019-01-19T07:45:15.155Z,-2.10
2019-01-19T07:47:44.949Z,-2.00
2019-01-19T07:50:16.091Z,-2.00
2019-01-19T07:52:45.357Z,-2.00
2019-01-19T07:55:16.003Z,-1.90
2019-01-19T07:57:45.197Z,-1.90
2019-01-19T08:00:17.164Z,-1.90
2019-01-19T08:02:46.295Z,-1.90
2019-01-19T08:05:15.418Z,-1.80
2019-01-19T08:07:44.529Z,-1.80
2019-01-19T08:10:15.889Z,-1.80
2019-01-19T08:12:45.002Z,-1.80
2019-01-19T08:15:25.648Z,-1.70
2019-01-19T08:17:54.782Z,-1.70
2019-01-19T08:20:23.932Z,-1.70
2019-01-19T08:22:53.086Z,-1.60
2019-01-19T08:25:22.300Z,-1.60
2019-01-19T08:27:51.443Z,-1.50
2019-01-19T08:30:26.238Z,-1.50
2019-01-19T08:32:55.348Z,-1.40
2019-01-19T08:35:24.618Z,-1.30
2019-01-19T08:37:53.729Z,-1.30
2019-01-19T08:40:31.118Z,-1.30
2019-01-19T08:43:08.027Z,-1.20
2019-01-19T08:45:37.196Z,-1.10
2019-01-19T08:48:06.472Z,-1.10
2019-01-19T08:50:36.542Z,-1.10
2019-01-19T08:53:05.654Z,-1.00
2019-01-19T08:55:34.750Z,-1.00
2019-01-19T08:58:03.866Z,-0.90
2019-01-19T09:00:32.972Z,-0.90
2019-01-19T09:03:02.098Z,-0.80
2019-01-19T09:05:31.203Z,-0.70
2019-01-19T09:08:00.327Z,-0.60
2019-01-19T09:10:29.428Z,-0.50
2019-01-19T09:12:58.547Z,-0.40
2019-01-19T09:15:27.646Z,-0.30
2019-01-19T09:17:56.769Z,-0.20
2019-01-19T09:20:25.884Z,-0.10
2019-01-19T09:22:56.631Z,-0.10
2019-01-19T09:25:25.728Z,0.00
2019-01-19T09:27:54.832Z,0.10
2019-01-19T09:30:24.505Z,0.00
2019-01-19T09:32:53.682Z,0.10
2019-01-19T09:35:22.861Z,0.10
2019-01-19T09:37:52.051Z,0.20
2019-01-19T09:40:21.152Z,0.30
2019-01-19T09:42:50.343Z,0.40
2019-01-19T09:45:21.065Z,0.80
2019-01-19T09:47:50.178Z,1.10
2019-01-19T09:50:20.714Z,1.30
2019-01-19T09:52:49.816Z,1.50
2019-01-19T09:55:18.912Z,1.60
2019-01-19T09:57:48.011Z,1.90
2019-01-19T10:00:27.547Z,2.10
2019-01-19T10:02:56.670Z,2.50
2019-01-19T10:05:26.913Z,2.80
2019-01-19T10:07:56.018Z,2.50
2019-01-19T10:10:25.123Z,2.70
2019-01-19T10:12:54.222Z,2.70
2019-01-19T10:15:23.581Z,2.80
2019-01-19T10:17:53.647Z,2.70
2019-01-19T10:20:27.540Z,3.20
2019-01-19T10:22:56.690Z,3.30
2019-01-19T10:25:25.829Z,3.30
2019-01-19T10:27:54.936Z,3.50
2019-01-19T10:30:28.105Z,3.60
2019-01-19T10:32:57.231Z,3.60
2019-01-19T10:35:26.330Z,3.00
2019-01-19T10:37:56.548Z,3.30
2019-01-19T10:40:25.934Z,3.20
2019-01-19T10:42:55.052Z,3.10
2019-01-19T10:45:30.397Z,3.30
2019-01-19T10:47:59.569Z,3.30
2019-01-19T10:50:28.670Z,2.90
2019-01-19T10:52:57.795Z,3.10
2019-01-19T10:55:26.903Z,3.30
2019-01-19T10:57:55.995Z,3.40
2019-01-19T11:00:30.330Z,3.30
2019-01-19T11:03:00.660Z,3.10
2019-01-19T11:05:30.113Z,2.70
2019-01-19T11:08:03.571Z,2.70
2019-01-19T11:10:32.481Z,2.70
2019-01-19T11:13:01.585Z,2.90
2019-01-19T11:15:33.504Z,3.10
2019-01-19T11:18:02.727Z,3.30
2019-01-19T11:20:32.782Z,3.20
2019-01-19T11:23:01.918Z,3.20
2019-01-19T11:25:31.087Z,3.10
2019-01-19T11:28:02.564Z,3.20
2019-01-19T11:30:33.414Z,3.40
2019-01-19T11:33:02.495Z,3.60
2019-01-19T11:35:31.615Z,3.40
2019-01-19T11:38:00.706Z,3.50
2019-01-19T11:40:36.999Z,3.50
2019-01-19T11:43:07.446Z,3.60
2019-01-19T11:45:39.838Z,3.70
2019-01-19T11:48:15.430Z,3.80
2019-01-19T11:50:44.560Z,3.60
2019-01-19T11:53:13.858Z,3.60
2019-01-19T11:55:42.948Z,3.60
2019-01-19T11:58:12.224Z,3.60
2019-01-19T12:00:42.942Z,3.80
2019-01-19T12:03:12.053Z,3.80
2019-01-19T12:05:42.920Z,3.70
2019-01-19T12:08:20.354Z,3.80
2019-01-19T12:10:59.818Z,4.30
2019-01-19T12:13:32.470Z,4.60
2019-01-19T12:16:25.585Z,4.60
2019-01-19T12:42:36.676Z,5.40
2019-01-19T12:52:03.722Z,5.10
2019-01-19T12:55:03.686Z,5.40
2019-01-19T12:57:52.337Z,5.00
2019-01-19T13:00:26.178Z,5.00
2019-01-19T13:06:26.916Z,5.10
2019-01-19T13:09:15.317Z,4.90
2019-01-19T13:11:48.696Z,5.00
2019-01-19T13:14:25.701Z,5.00
2019-01-19T13:21:12.183Z,4.70
2019-01-19T13:27:04.338Z,4.30
2019-01-19T13:29:46.874Z,4.40
2019-01-19T13:32:37.262Z,4.40
2019-01-19T13:35:19.205Z,4.50
2019-01-19T13:38:22.956Z,4.30
2019-01-19T13:41:12.907Z,4.50
2019-01-19T13:44:13.673Z,4.40
2019-01-19T13:47:05.447Z,4.00
2019-01-19T13:50:17.008Z,3.80
2019-01-19T13:53:14.395Z,3.80
2019-01-19T13:56:33.738Z,3.90
2019-01-19T13:59:34.428Z,3.80
2019-01-19T14:02:46.502Z,3.70
2019-01-19T14:05:23.803Z,3.70
2019-01-19T14:08:14.323Z,3.80
2019-01-19T14:11:20.438Z,3.60
2019-01-19T14:14:15.047Z,3.50
2019-01-19T14:26:25.747Z,3.10
2019-01-19T14:29:19.223Z,3.10
2019-01-19T14:32:00.579Z,3.00
2019-01-19T14:34:41.883Z,3.10
2019-01-19T14:37:19.839Z,3.10
2019-01-19T14:40:05.214Z,3.10
2019-01-19T14:42:37.662Z,3.10
2019-01-19T14:45:22.504Z,2.90
2019-01-19T14:48:10.251Z,3.00
2019-01-19T14:50:59.757Z,3.00
2019-01-19T14:53:53.031Z,3.10
2019-01-19T14:57:16.981Z,2.80
2019-01-19T15:02:20.325Z,2.60
2019-01-19T15:03:54.880Z,2.50
2019-01-19T15:20:24.213Z,2.20
2019-01-19T15:23:14.064Z,2.10
2019-01-19T15:26:22.439Z,1.90
2019-01-19T15:29:45.672Z,1.90
2019-01-19T15:36:00.041Z,1.70
2019-01-19T15:39:10.879Z,1.60
2019-01-19T15:41:53.874Z,1.50
2019-01-19T15:44:31.744Z,1.30
2019-01-19T15:47:12.218Z,1.10
2019-01-19T15:49:47.234Z,1.00
2019-01-19T15:52:26.348Z,0.90
2019-01-19T15:55:12.285Z,0.90
2019-01-19T15:57:47.359Z,0.80
2019-01-19T16:00:49.734Z,0.80
2019-01-19T16:03:31.171Z,0.70
2019-01-19T16:06:24.857Z,0.60
2019-01-19T16:09:18.178Z,0.50
2019-01-19T16:11:59.452Z,0.40
2019-01-19T16:14:58.598Z,0.30
2019-01-19T16:17:33.507Z,0.20
2019-01-19T16:20:31.579Z,0.10
2019-01-19T16:23:28.066Z,0.00
2019-01-19T16:26:15.610Z,0.00
2019-01-19T16:28:58.827Z,-0.10
2019-01-19T16:31:36.407Z,-0.10
2019-01-19T16:34:17.707Z,-0.20
2019-01-19T16:36:58.713Z,-0.20
2019-01-19T16:39:46.165Z,-0.30
2019-01-19T16:42:53.117Z,-0.30
2019-01-19T16:45:40.019Z,-0.30
2019-01-19T16:48:18.167Z,-0.30
2019-01-19T16:50:59.137Z,-0.30
2019-01-19T16:53:34.290Z,-0.40
2019-01-19T16:56:12.216Z,-0.40
2019-01-19T16:58:50.429Z,-0.50
2019-01-19T17:01:28.427Z,-0.50
2019-01-19T17:04:07.250Z,-0.60
2019-01-19T17:06:59.743Z,-0.60
2019-01-19T17:09:39.214Z,-0.70
2019-01-19T17:12:11.657Z,-0.80
2019-01-19T17:15:06.118Z,-0.80
2019-01-19T17:17:46.086Z,-0.80
2019-01-19T17:20:49.920Z,-0.80
2019-01-19T17:27:30.018Z,-0.90
2019-01-19T17:30:10.703Z,-0.90
2019-01-19T17:32:46.014Z,-0.90
2019-01-19T17:35:56.106Z,-0.90
2019-01-19T17:38:54.387Z,-1.00
2019-01-19T17:41:48.861Z,-1.00
2019-01-19T17:44:40.743Z,-1.00
2019-01-19T17:47:15.881Z,-1.00
2019-01-19T17:50:01.600Z,-1.00
2019-01-19T17:56:10.192Z,-0.60
2019-01-19T17:59:00.565Z,-0.50
2019-01-19T18:01:41.638Z,-0.50
2019-01-19T18:04:28.986Z,-0.60
2019-01-19T18:07:04.122Z,-0.60
2019-01-19T18:09:39.034Z,-0.70
2019-01-19T18:12:17.050Z,-0.80
2019-01-19T18:15:12.318Z,-0.90
2019-01-19T18:18:08.402Z,-1.00
2019-01-19T18:20:49.423Z,-1.00
2019-01-19T18:23:33.454Z,-1.10
2019-01-19T18:26:11.594Z,-1.10
2019-01-19T18:28:57.075Z,-1.20
2019-01-19T18:31:56.764Z,-1.20
2019-01-19T18:34:32.156Z,-1.20
2019-01-19T18:37:04.527Z,-1.30
2019-01-19T18:39:54.604Z,-1.20
2019-01-19T18:42:31.500Z,-1.30
2019-01-19T18:45:24.888Z,-1.30
2019-01-19T18:47:59.898Z,-1.30
2019-01-19T18:50:47.320Z,-1.40
2019-01-19T18:53:30.789Z,-1.30
2019-01-19T18:56:03.143Z,-1.30
2019-01-19T18:58:57.669Z,-1.10
2019-01-19T19:01:49.435Z,-1.10
2019-01-19T19:04:44.770Z,-1.10
2019-01-19T19:07:29.701Z,-1.10
2019-01-19T19:10:20.358Z,-1.20
2019-01-19T19:12:59.765Z,-1.20
2019-01-19T19:15:35.939Z,-1.30
2019-01-19T19:18:23.294Z,-1.20
2019-01-19T19:21:04.344Z,-1.10
2019-01-19T19:23:39.451Z,-1.10
2019-01-19T19:26:28.138Z,-1.20
2019-01-19T19:29:05.496Z,-1.40
2019-01-19T19:31:58.899Z,-1.50
2019-01-19T19:34:40.296Z,-1.60
2019-01-19T19:37:15.577Z,-1.70
2019-01-19T19:39:50.508Z,-1.80
2019-01-19T19:42:29.122Z,-1.80
2019-01-19T19:45:12.979Z,-1.90
2019-01-19T19:48:00.241Z,-1.80
2019-01-19T19:50:44.347Z,-1.50
2019-01-19T19:53:13.639Z,-1.40
2019-01-19T19:55:41.835Z,-1.40
2019-01-19T19:58:10.955Z,-1.40
2019-01-19T20:00:40.135Z,-1.40
2019-01-19T20:03:09.327Z,-1.50
2019-01-19T20:05:38.438Z,-1.40
2019-01-19T20:08:07.556Z,-1.40
2019-01-19T20:10:36.690Z,-1.40
2019-01-19T20:13:05.887Z,-1.40
2019-01-19T20:15:35.084Z,-1.40
2019-01-19T20:18:08.697Z,-1.50
2019-01-19T20:20:40.025Z,-1.60
2019-01-19T20:23:09.701Z,-1.70
2019-01-19T20:25:39.928Z,-1.80
2019-01-19T20:28:09.199Z,-1.90
2019-01-19T20:30:39.384Z,-1.90
2019-01-19T20:33:08.560Z,-1.90
2019-01-19T20:35:37.790Z,-1.90
2019-01-19T20:38:08.152Z,-1.90
2019-01-19T20:40:37.270Z,-1.90
2019-01-19T20:43:08.079Z,-2.00
2019-01-19T20:45:38.821Z,-2.10
2019-01-19T20:48:09.403Z,-2.10
2019-01-19T20:50:38.866Z,-2.10
2019-01-19T20:53:09.095Z,-2.10
2019-01-19T20:55:39.299Z,-2.20
2019-01-19T20:58:08.429Z,-2.20
2019-01-19T21:00:37.542Z,-2.20
2019-01-19T21:03:08.066Z,-2.20
2019-01-19T21:05:37.276Z,-2.20
2019-01-19T21:08:08.395Z,-2.10
2019-01-19T21:10:37.614Z,-2.00
2019-01-19T21:13:06.724Z,-2.00
2019-01-19T21:15:35.966Z,-2.10
2019-01-19T21:18:05.143Z,-2.10
2019-01-19T21:20:34.516Z,-2.10
2019-01-19T21:23:04.786Z,-2.10
2019-01-19T21:25:35.091Z,-2.00
2019-01-19T21:28:06.198Z,-2.10
2019-01-19T21:30:37.994Z,-2.20
2019-01-19T21:33:07.388Z,-2.30
2019-01-19T21:35:36.503Z,-2.30
2019-01-19T21:38:05.858Z,-2.20
2019-01-19T21:40:39.207Z,-2.10
2019-01-19T21:43:08.491Z,-2.00
2019-01-19T21:45:37.719Z,-2.00
2019-01-19T21:48:10.549Z,-2.10
2019-01-19T21:50:39.660Z,-2.10
2019-01-19T21:53:08.766Z,-2.30
2019-01-19T21:55:38.005Z,-2.50
2019-01-19T21:58:07.134Z,-2.60
2019-01-19T22:00:36.260Z,-2.70
2019-01-19T22:03:05.386Z,-2.80
2019-01-19T22:05:34.612Z,-2.80
2019-01-19T22:08:03.855Z,-2.90
2019-01-19T22:10:32.987Z,-3.00
2019-01-19T22:13:02.105Z,-3.00
2019-01-19T22:15:31.262Z,-3.00
2019-01-19T22:18:01.455Z,-3.10
2019-01-19T22:20:30.672Z,-3.10
2019-01-19T22:22:59.817Z,-3.10
2019-01-19T22:25:28.979Z,-3.20
2019-01-19T22:27:58.108Z,-3.20
2019-01-19T22:30:27.228Z,-3.20
2019-01-19T22:32:56.600Z,-3.20
2019-01-19T22:35:27.417Z,-3.20
2019-01-19T22:37:56.511Z,-3.20
2019-01-19T22:40:25.690Z,-3.30
2019-01-19T22:42:55.225Z,-3.30
2019-01-19T22:45:24.396Z,-3.40
2019-01-19T22:47:55.133Z,-3.30
2019-01-19T22:50:24.285Z,-3.40
2019-01-19T22:52:53.387Z,-3.40
2019-01-19T22:55:22.505Z,-3.50
2019-01-19T22:57:51.623Z,-3.50
2019-01-19T23:00:57.512Z,-3.50
2019-01-19T23:03:28.884Z,-3.50
2019-01-19T23:05:59.000Z,-3.60
2019-01-19T23:08:28.102Z,-3.60
2019-01-19T23:11:01.159Z,-3.60
2019-01-19T23:13:28.041Z,-3.70
2019-01-19T23:15:57.544Z,-3.70
2019-01-19T23:18:26.643Z,-3.70
2019-01-19T23:20:55.760Z,-3.70
2019-01-19T23:23:24.872Z,-3.70
2019-01-19T23:25:54.054Z,-3.70
2019-01-19T23:28:24.822Z,-3.70
2019-01-19T23:30:55.547Z,-3.70
2019-01-19T23:33:24.663Z,-3.70
2019-01-19T23:35:53.825Z,-3.70
2019-01-19T23:38:23.090Z,-3.70
2019-01-19T23:40:52.275Z,-3.70
2019-01-19T23:43:21.415Z,-3.70
2019-01-19T23:45:50.583Z,-3.70
2019-01-19T23:51:33.719Z,-3.80
2019-01-19T23:54:02.827Z,-3.90
2019-01-19T23:56:31.947Z,-3.90
2019-01-19T23:59:01.062Z,-3.90
